createdAt,value
2019-03-05T00:00:08.809Z,88.96
2019-03-05T00:01:08.799Z,88.24
2019-03-05T00:02:08.795Z,89.28
2019-03-05T00:03:08.780Z,88.34
2019-03-05T00:04:08.779Z,90.10
2019-03-05T00:05:08.772Z,88.34
2019-03-05T00:06:08.751Z,88.65
2019-03-05T00:07:08.733Z,88.55
2019-03-05T00:08:08.724Z,88.39
2019-03-05T00:09:08.726Z,88.39
2019-03-05T00:10:08.702Z,89.00
2019-03-05T00:11:08.708Z,89.52
2019-03-05T00:12:08.693Z,88.28
2019-03-05T00:13:08.682Z,88.39
2019-03-05T00:14:08.685Z,87.55
2019-03-05T00:15:08.702Z,86.41
2019-03-05T00:16:08.640Z,86.58
2019-03-05T00:17:08.630Z,87.51
2019-03-05T00:18:08.619Z,87.82
2019-03-05T00:19:08.624Z,87.55
2019-03-05T00:20:08.596Z,87.24
2019-03-05T00:21:08.587Z,88.69
2019-03-05T00:22:08.576Z,88.59
2019-03-05T00:23:08.613Z,89.62
2019-03-05T00:24:08.567Z,90.35
2019-03-05T00:25:08.564Z,89.52
2019-03-05T00:26:08.533Z,88.39
2019-03-05T00:27:08.523Z,90.14
2019-03-05T00:28:08.520Z,89.83
2019-03-05T00:29:08.540Z,90.04
2019-03-05T00:30:08.495Z,87.97
2019-03-05T00:31:08.488Z,88.79
2019-03-05T00:32:08.471Z,88.59
2019-03-05T00:33:08.467Z,90.35
2019-03-05T00:34:08.452Z,90.66
2019-03-05T00:35:08.482Z,91.22
2019-03-05T00:36:08.432Z,89.56
2019-03-05T00:37:08.423Z,89.98
2019-03-05T00:38:08.409Z,89.87
2019-03-05T00:39:08.413Z,90.08
2019-03-05T00:40:08.406Z,90.19
2019-03-05T00:41:08.382Z,89.87
2019-03-05T00:42:08.367Z,90.19
2019-03-05T00:43:08.358Z,89.46
2019-03-05T00:44:08.348Z,90.39
2019-03-05T00:45:08.347Z,89.87
2019-03-05T00:46:08.328Z,89.25
2019-03-05T00:47:08.315Z,89.31
2019-03-05T00:48:08.302Z,89.77
2019-03-05T00:49:08.295Z,89.98
2019-03-05T00:50:08.295Z,90.29
2019-03-05T00:51:08.278Z,90.39
2019-03-05T00:52:08.261Z,90.50
2019-03-05T00:53:08.258Z,90.08
2019-03-05T00:54:08.240Z,90.19
2019-03-05T00:55:08.238Z,90.60
2019-03-05T00:56:08.225Z,90.08
2019-03-05T00:57:08.220Z,90.29
2019-03-05T00:58:08.198Z,89.83
2019-03-05T00:59:08.198Z,88.69
2019-03-05T01:00:08.189Z,89.11
2019-03-05T01:01:08.175Z,90.04
2019-03-05T01:02:08.175Z,90.25
2019-03-05T01:03:08.145Z,88.79
2019-03-05T01:04:08.152Z,88.90
2019-03-05T01:05:08.134Z,87.87
2019-03-05T01:06:08.117Z,88.90
2019-03-05T01:07:08.107Z,87.66
2019-03-05T01:08:08.100Z,86.72
2019-03-05T01:09:08.095Z,87.97
2019-03-05T01:10:08.094Z,87.66
2019-03-05T01:11:08.064Z,87.76
2019-03-05T01:12:08.054Z,88.07
2019-03-05T01:13:08.042Z,87.76
2019-03-05T01:14:08.030Z,87.24
2019-03-05T01:15:08.038Z,86.52
2019-03-05T01:16:08.015Z,87.04
2019-03-05T01:17:08.064Z,87.87
2019-03-05T01:18:07.988Z,87.87
2019-03-05T01:19:07.977Z,87.97
2019-03-05T01:20:07.975Z,87.55
2019-03-05T01:21:07.972Z,87.87
2019-03-05T01:22:07.947Z,87.97
2019-03-05T01:23:07.944Z,87.87
2019-03-05T01:24:07.926Z,87.55
2019-03-05T01:25:07.965Z,87.04
2019-03-05T01:26:07.921Z,87.97
2019-03-05T01:27:07.894Z,87.66
2019-03-05T01:28:07.887Z,87.72
2019-03-05T01:29:07.895Z,87.04
2019-03-05T01:30:07.865Z,87.76
2019-03-05T01:31:07.868Z,87.76
2019-03-05T01:32:07.842Z,87.97
2019-03-05T01:33:07.834Z,87.97
2019-03-05T01:34:07.823Z,88.03
2019-03-05T01:35:07.810Z,88.59
2019-03-05T01:36:07.812Z,87.35
2019-03-05T01:37:07.789Z,88.28
2019-03-05T01:38:07.782Z,89.31
2019-03-05T01:39:07.767Z,88.69
2019-03-05T01:40:07.761Z,89.94
2019-03-05T01:41:07.759Z,89.83
2019-03-05T01:42:07.741Z,89.62
2019-03-05T01:43:07.724Z,90.04
2019-03-05T01:44:07.747Z,90.14
2019-03-05T01:45:07.719Z,90.56
2019-03-05T01:46:07.709Z,89.83
2019-03-05T01:47:07.686Z,90.04
2019-03-05T01:48:07.677Z,90.39
2019-03-05T01:49:07.663Z,89.87
2019-03-05T01:50:07.667Z,90.08
2019-03-05T01:51:07.676Z,90.14
2019-03-05T01:52:07.644Z,89.94
2019-03-05T01:53:07.625Z,88.69
2019-03-05T01:54:07.619Z,90.08
2019-03-05T01:55:07.603Z,90.60
2019-03-05T01:56:07.601Z,90.39
2019-03-05T01:57:07.584Z,89.98
2019-03-05T01:58:07.571Z,90.14
2019-03-05T01:59:07.559Z,90.56
2019-03-05T02:00:07.562Z,89.67
2019-03-05T02:01:07.558Z,90.29
2019-03-05T02:02:07.546Z,90.19
2019-03-05T02:03:07.519Z,90.29
2019-03-05T02:04:07.508Z,89.87
2019-03-05T02:05:07.496Z,90.29
2019-03-05T02:06:07.502Z,90.29
2019-03-05T02:07:07.487Z,89.98
2019-03-05T02:08:07.465Z,90.19
2019-03-05T02:09:07.458Z,89.56
2019-03-05T02:10:07.454Z,89.62
2019-03-05T02:11:07.442Z,89.73
2019-03-05T02:12:07.427Z,89.00
2019-03-05T02:13:07.417Z,89.62
2019-03-05T02:14:07.401Z,89.62
2019-03-05T02:15:07.406Z,89.42
2019-03-05T02:16:07.383Z,89.31
2019-03-05T02:17:07.377Z,88.79
2019-03-05T02:18:07.361Z,88.69
2019-03-05T02:19:07.351Z,89.31
2019-03-05T02:20:07.340Z,88.69
2019-03-05T02:21:07.329Z,87.82
2019-03-05T02:22:07.327Z,89.07
2019-03-05T02:23:07.305Z,88.96
2019-03-05T02:24:07.296Z,89.11
2019-03-05T02:25:07.291Z,88.24
2019-03-05T02:26:07.293Z,89.38
2019-03-05T02:27:07.281Z,88.45
2019-03-05T02:28:07.255Z,86.72
2019-03-05T02:29:07.250Z,87.72
2019-03-05T02:30:07.234Z,87.20
2019-03-05T02:31:07.232Z,86.89
2019-03-05T02:32:07.223Z,86.37
2019-03-05T02:33:07.212Z,86.58
2019-03-05T02:34:07.192Z,87.51
2019-03-05T02:35:07.187Z,86.68
2019-03-05T02:36:07.169Z,86.27
2019-03-05T02:37:07.172Z,86.37
2019-03-05T02:38:07.157Z,86.27
2019-03-05T02:39:07.149Z,85.96
2019-03-05T02:40:07.216Z,85.86
2019-03-05T02:41:07.121Z,86.47
2019-03-05T02:42:07.131Z,87.51
2019-03-05T02:43:07.101Z,86.58
2019-03-05T02:44:07.090Z,86.68
2019-03-05T02:45:07.085Z,86.99
2019-03-05T02:46:07.073Z,87.72
2019-03-05T02:47:07.071Z,87.30
2019-03-05T02:48:07.045Z,87.10
2019-03-05T02:49:07.040Z,86.99
2019-03-05T02:50:07.034Z,88.03
2019-03-05T02:51:07.012Z,87.62
2019-03-05T02:52:07.023Z,87.82
2019-03-05T02:53:07.002Z,88.24
2019-03-05T02:54:06.997Z,88.34
2019-03-05T02:55:06.978Z,88.45
2019-03-05T02:56:06.969Z,87.41
2019-03-05T02:57:06.971Z,88.24
2019-03-05T02:58:06.949Z,88.34
2019-03-05T02:59:06.936Z,88.55
2019-03-05T03:00:06.927Z,88.24
2019-03-05T03:01:06.914Z,88.13
2019-03-05T03:02:06.921Z,88.86
2019-03-05T03:03:06.887Z,89.58
2019-03-05T03:04:06.889Z,88.96
2019-03-05T03:05:06.871Z,88.55
2019-03-05T03:06:06.856Z,88.03
2019-03-05T03:07:06.859Z,90.00
2019-03-05T03:08:06.844Z,88.76
2019-03-05T03:09:06.823Z,88.76
2019-03-05T03:10:06.813Z,88.96
2019-03-05T03:11:06.812Z,88.45
2019-03-05T03:12:06.820Z,88.76
2019-03-05T03:13:06.798Z,88.03
2019-03-05T03:14:06.772Z,87.51
2019-03-05T03:15:06.770Z,87.41
2019-03-05T03:16:06.753Z,88.34
2019-03-05T03:17:06.742Z,89.79
2019-03-05T03:18:06.744Z,88.65
2019-03-05T03:19:06.722Z,87.72
2019-03-05T03:20:06.716Z,88.96
2019-03-05T03:21:06.700Z,89.07
2019-03-05T03:22:06.688Z,88.55
2019-03-05T03:23:06.686Z,88.96
2019-03-05T03:24:06.667Z,88.34
2019-03-05T03:25:06.661Z,87.62
2019-03-05T03:26:06.647Z,86.99
2019-03-05T03:27:06.636Z,87.82
2019-03-05T03:28:06.638Z,86.89
2019-03-05T03:29:06.617Z,87.62
2019-03-05T03:30:06.618Z,87.10
2019-03-05T03:31:06.649Z,87.82
2019-03-05T03:32:06.589Z,87.72
2019-03-05T03:33:06.594Z,87.82
2019-03-05T03:34:06.642Z,87.41
2019-03-05T03:35:06.558Z,86.89
2019-03-05T03:36:06.541Z,87.62
2019-03-05T03:37:06.530Z,87.62
2019-03-05T03:38:06.533Z,86.47
2019-03-05T03:39:06.509Z,86.02
2019-03-05T03:40:06.508Z,86.37
2019-03-05T03:41:06.490Z,86.47
2019-03-05T03:42:06.483Z,86.02
2019-03-05T03:43:06.477Z,85.92
2019-03-05T03:44:06.462Z,86.02
2019-03-05T03:45:06.445Z,85.86
2019-03-05T03:46:06.449Z,85.19
2019-03-05T03:47:06.427Z,86.02
2019-03-05T03:48:06.420Z,86.23
2019-03-05T03:49:06.403Z,86.02
2019-03-05T03:50:06.394Z,85.61
2019-03-05T03:51:06.397Z,85.71
2019-03-05T03:52:06.387Z,85.82
2019-03-05T03:53:06.368Z,85.92
2019-03-05T03:54:06.351Z,85.92
2019-03-05T03:55:06.340Z,86.07
2019-03-05T03:56:06.344Z,85.19
2019-03-05T03:57:06.322Z,85.82
2019-03-05T03:58:06.315Z,86.13
2019-03-05T03:59:06.309Z,86.02
2019-03-05T04:00:06.290Z,84.58
2019-03-05T04:01:07.201Z,84.06
2019-03-05T04:02:06.268Z,85.92
2019-03-05T04:03:06.260Z,85.71
2019-03-05T04:04:06.246Z,85.50
2019-03-05T04:05:06.240Z,85.96
2019-03-05T04:06:06.227Z,85.96
2019-03-05T04:07:06.214Z,86.02
2019-03-05T04:08:06.222Z,85.96
2019-03-05T04:09:06.192Z,86.96
2019-03-05T04:10:06.185Z,86.89
2019-03-05T04:11:06.188Z,87.72
2019-03-05T04:12:06.178Z,86.27
2019-03-05T04:13:06.166Z,86.27
2019-03-05T04:14:06.141Z,86.37
2019-03-05T04:15:06.132Z,86.27
2019-03-05T04:16:06.126Z,86.58
2019-03-05T04:17:06.112Z,86.68
2019-03-05T04:18:06.148Z,86.68
2019-03-05T04:19:06.093Z,86.89
2019-03-05T04:20:06.085Z,86.68
2019-03-05T04:21:06.069Z,86.99
2019-03-05T04:22:06.071Z,86.68
2019-03-05T04:23:06.060Z,86.68
2019-03-05T04:24:06.042Z,87.72
2019-03-05T04:25:06.028Z,87.62
2019-03-05T04:26:06.015Z,87.93
2019-03-05T04:27:06.028Z,86.79
2019-03-05T04:28:06.007Z,87.82
2019-03-05T04:29:06.058Z,86.89
2019-03-05T04:30:05.973Z,86.27
2019-03-05T04:31:05.962Z,86.89
2019-03-05T04:32:05.968Z,86.58
2019-03-05T04:33:05.949Z,87.62
2019-03-05T04:34:05.974Z,86.58
2019-03-05T04:35:05.920Z,87.62
2019-03-05T04:36:05.912Z,87.41
2019-03-05T04:37:05.912Z,87.72
2019-03-05T04:38:05.889Z,87.41
2019-03-05T04:39:05.896Z,87.62
2019-03-05T04:40:05.884Z,87.62
2019-03-05T04:41:05.858Z,87.82
2019-03-05T04:42:05.846Z,87.82
2019-03-05T04:43:05.837Z,88.03
2019-03-05T04:44:05.841Z,88.07
2019-03-05T04:45:05.817Z,88.28
2019-03-05T04:46:05.808Z,88.55
2019-03-05T04:47:05.793Z,87.82
2019-03-05T04:48:05.793Z,87.62
2019-03-05T04:49:05.840Z,87.72
2019-03-05T04:51:36.086Z,88.24
2019-03-05T04:52:36.077Z,87.72
2019-03-05T04:53:36.346Z,87.76
2019-03-05T04:54:36.069Z,88.65
2019-03-05T04:55:36.047Z,87.41
2019-03-05T04:56:36.039Z,86.68
2019-03-05T04:57:36.046Z,87.51
2019-03-05T04:58:36.023Z,87.93
2019-03-05T04:59:36.017Z,87.62
2019-03-05T05:00:36.112Z,86.27
2019-03-05T05:01:35.984Z,86.47
2019-03-05T05:02:35.980Z,87.87
2019-03-05T05:03:35.971Z,87.66
2019-03-05T05:04:36.170Z,87.45
2019-03-05T05:05:36.139Z,87.76
2019-03-05T05:06:35.950Z,87.76
2019-03-05T05:07:35.921Z,86.31
2019-03-05T05:08:35.917Z,87.04
2019-03-05T05:09:37.881Z,87.04
2019-03-05T05:10:35.897Z,86.72
2019-03-05T05:11:35.892Z,86.31
2019-03-05T05:12:35.884Z,86.52
2019-03-05T05:13:35.861Z,87.76
2019-03-05T05:14:35.865Z,87.04
2019-03-05T05:15:35.845Z,86.62
2019-03-05T05:16:35.844Z,86.93
2019-03-05T05:17:35.834Z,86.72
2019-03-05T05:18:35.812Z,86.41
2019-03-05T05:19:35.823Z,86.41
2019-03-05T05:20:35.796Z,87.14
2019-03-05T05:21:35.775Z,87.76
2019-03-05T05:22:35.765Z,86.93
2019-03-05T05:23:35.756Z,87.87
2019-03-05T05:24:35.757Z,87.24
2019-03-05T05:25:35.763Z,88.07
2019-03-05T05:26:35.728Z,87.76
2019-03-05T05:27:35.712Z,87.14
2019-03-05T05:28:35.729Z,87.55
2019-03-05T05:29:35.710Z,87.14
2019-03-05T05:30:35.691Z,87.18
2019-03-05T05:31:35.672Z,86.41
2019-03-05T05:32:35.661Z,86.31
2019-03-05T05:33:35.716Z,86.62
2019-03-05T05:34:35.733Z,86.83
2019-03-05T05:35:35.629Z,86.83
2019-03-05T05:36:35.626Z,86.31
2019-03-05T05:37:35.613Z,86.31
2019-03-05T05:38:35.600Z,85.89
2019-03-05T05:39:35.601Z,85.58
2019-03-05T05:40:35.579Z,86.10
2019-03-05T05:41:35.571Z,85.69
2019-03-05T05:42:35.557Z,85.89
2019-03-05T05:43:35.547Z,86.31
2019-03-05T05:44:35.552Z,86.62
2019-03-05T05:45:35.533Z,86.00
2019-03-05T05:46:35.549Z,86.83
2019-03-05T05:47:35.508Z,86.52
2019-03-05T05:48:35.495Z,86.21
2019-03-05T05:49:35.527Z,84.96
2019-03-05T05:50:35.483Z,85.06
2019-03-05T05:51:35.465Z,86.10
2019-03-05T05:52:35.455Z,85.58
2019-03-05T05:53:35.456Z,86.10
2019-03-05T05:54:35.444Z,84.86
2019-03-05T05:55:35.433Z,84.55
2019-03-05T05:56:35.413Z,84.86
2019-03-05T05:57:36.037Z,85.17
2019-03-05T05:58:35.394Z,86.00
2019-03-05T05:59:35.384Z,86.00
2019-03-05T06:00:35.383Z,86.31
2019-03-05T06:01:35.359Z,87.76
2019-03-05T06:02:35.350Z,86.41
2019-03-05T06:03:37.841Z,86.15
2019-03-05T06:04:35.330Z,86.35
2019-03-05T06:05:35.336Z,86.21
2019-03-05T06:06:35.312Z,85.48
2019-03-05T06:07:35.303Z,86.15
2019-03-05T06:08:35.289Z,85.94
2019-03-05T06:09:35.280Z,85.94
2019-03-05T06:10:35.301Z,86.15
2019-03-05T06:11:35.303Z,85.83
2019-03-05T06:12:35.246Z,83.93
2019-03-05T06:13:35.242Z,84.34
2019-03-05T06:14:35.230Z,85.79
2019-03-05T06:15:35.227Z,84.96
2019-03-05T06:16:35.219Z,84.13
2019-03-05T06:17:35.203Z,85.06
2019-03-05T06:18:35.194Z,84.44
2019-03-05T06:19:35.193Z,84.13
2019-03-05T06:20:35.223Z,83.93
2019-03-05T06:21:35.155Z,83.72
2019-03-05T06:22:35.143Z,84.75
2019-03-05T06:23:35.133Z,84.55
2019-03-05T06:24:35.121Z,83.83
2019-03-05T06:25:35.122Z,83.51
2019-03-05T06:26:35.101Z,82.95
2019-03-05T06:27:35.091Z,83.37
2019-03-05T06:28:35.079Z,83.37
2019-03-05T06:29:35.079Z,82.75
2019-03-05T06:30:35.077Z,82.65
2019-03-05T06:31:35.062Z,82.86
2019-03-05T06:32:35.045Z,82.65
2019-03-05T06:33:35.033Z,82.34
2019-03-05T06:34:35.019Z,82.34
2019-03-05T06:35:35.018Z,81.30
2019-03-05T06:36:35.007Z,81.82
2019-03-05T06:37:34.998Z,82.23
2019-03-05T06:38:34.977Z,82.29
2019-03-05T06:39:34.974Z,81.47
2019-03-05T06:40:34.969Z,82.29
2019-03-05T06:41:34.949Z,81.47
2019-03-05T06:42:34.934Z,80.64
2019-03-05T06:43:34.941Z,79.60
2019-03-05T06:44:34.936Z,80.19
2019-03-05T06:45:34.915Z,79.77
2019-03-05T06:46:34.904Z,79.57
2019-03-05T06:47:34.892Z,79.57
2019-03-05T06:48:34.877Z,79.57
2019-03-05T06:49:34.869Z,80.08
2019-03-05T06:50:34.867Z,79.16
2019-03-05T06:51:34.841Z,79.05
2019-03-05T06:52:34.830Z,79.33
2019-03-05T06:53:34.820Z,79.33
2019-03-05T06:54:34.809Z,79.53
2019-03-05T06:55:34.819Z,79.53
2019-03-05T06:56:34.788Z,78.91
2019-03-05T06:57:34.806Z,79.22
2019-03-05T06:58:34.779Z,79.12
2019-03-05T06:59:34.767Z,78.88
2019-03-05T07:00:34.758Z,78.88
2019-03-05T07:01:34.737Z,79.19
2019-03-05T07:02:34.736Z,77.87
2019-03-05T07:03:34.719Z,79.22
2019-03-05T07:04:34.705Z,79.08
2019-03-05T07:05:34.715Z,79.19
2019-03-05T07:06:34.695Z,79.19
2019-03-05T07:07:34.682Z,77.94
2019-03-05T07:08:34.673Z,79.39
2019-03-05T07:09:34.656Z,78.15
2019-03-05T07:10:34.642Z,79.08
2019-03-05T07:11:34.659Z,79.49
2019-03-05T07:12:34.623Z,77.94
2019-03-05T07:13:34.633Z,77.12
2019-03-05T07:14:34.618Z,77.64
2019-03-05T07:15:34.590Z,78.25
2019-03-05T07:16:34.595Z,78.25
2019-03-05T07:17:34.571Z,78.36
2019-03-05T07:18:34.568Z,77.94
2019-03-05T07:19:34.554Z,78.25
2019-03-05T07:20:34.542Z,78.05
2019-03-05T07:21:34.537Z,78.36
2019-03-05T07:22:34.536Z,79.29
2019-03-05T07:23:34.513Z,78.25
2019-03-05T07:24:34.499Z,79.08
2019-03-05T07:25:34.489Z,79.29
2019-03-05T07:26:34.491Z,79.08
2019-03-05T07:27:34.480Z,77.94
2019-03-05T07:28:34.471Z,78.67
2019-03-05T07:29:34.456Z,79.08
2019-03-05T07:30:34.452Z,77.94
2019-03-05T07:31:34.443Z,78.46
2019-03-05T07:32:34.416Z,77.01
2019-03-05T07:33:34.404Z,77.19
2019-03-05T07:34:34.396Z,77.91
2019-03-05T07:35:34.395Z,77.39
2019-03-05T07:36:34.387Z,79.15
2019-03-05T07:37:34.374Z,77.81
2019-03-05T07:38:34.354Z,77.29
2019-03-05T07:39:34.343Z,77.50
2019-03-05T07:40:34.350Z,76.87
2019-03-05T07:41:34.336Z,75.95
2019-03-05T07:42:34.315Z,76.32
2019-03-05T07:43:36.765Z,75.29
2019-03-05T07:44:34.302Z,76.53
2019-03-05T07:45:34.295Z,74.57
2019-03-05T07:46:34.298Z,74.26
2019-03-05T07:47:34.270Z,76.01
2019-03-05T07:48:34.255Z,73.85
2019-03-05T07:49:43.188Z,74.67
2019-03-05T07:50:35.236Z,75.39
2019-03-05T07:51:34.232Z,75.81
2019-03-05T07:52:34.237Z,76.64
2019-03-05T07:53:34.226Z,74.67
2019-03-05T07:54:34.192Z,75.09
2019-03-05T07:55:34.199Z,74.67
2019-03-05T07:56:34.180Z,75.19
2019-03-05T07:57:34.159Z,74.67
2019-03-05T07:58:34.149Z,74.77
2019-03-05T07:59:34.136Z,74.77
2019-03-05T08:00:34.129Z,73.12
2019-03-05T08:01:34.166Z,73.85
2019-03-05T08:02:34.107Z,75.09
2019-03-05T08:03:34.102Z,73.54
2019-03-05T08:04:34.088Z,72.09
2019-03-05T08:05:34.086Z,71.78
2019-03-05T08:06:34.068Z,71.26
2019-03-05T08:07:34.072Z,71.54
2019-03-05T08:08:34.049Z,71.78
2019-03-05T08:09:34.037Z,71.06
2019-03-05T08:10:34.029Z,72.40
2019-03-05T08:11:34.017Z,71.85
2019-03-05T08:12:34.039Z,72.09
2019-03-05T08:13:34.000Z,70.30
2019-03-05T08:14:33.986Z,70.72
2019-03-05T08:15:33.975Z,71.85
2019-03-05T08:16:33.965Z,71.85
2019-03-05T08:17:33.959Z,72.06
2019-03-05T08:18:33.945Z,71.51
2019-03-05T08:19:33.937Z,71.30
2019-03-05T08:20:33.923Z,72.02
2019-03-05T08:21:33.910Z,72.23
2019-03-05T08:22:33.908Z,71.20
2019-03-05T08:23:33.889Z,70.06
2019-03-05T08:24:33.893Z,70.17
2019-03-05T08:25:33.869Z,70.27
2019-03-05T08:26:33.862Z,70.68
2019-03-05T08:27:33.860Z,70.27
2019-03-05T08:28:33.839Z,69.62
2019-03-05T08:29:33.837Z,70.34
2019-03-05T08:30:33.816Z,70.23
2019-03-05T08:31:33.808Z,69.20
2019-03-05T08:32:33.800Z,69.31
2019-03-05T08:33:33.795Z,70.03
2019-03-05T08:34:33.774Z,69.38
2019-03-05T08:35:33.784Z,70.10
2019-03-05T08:36:33.757Z,69.38
2019-03-05T08:37:33.747Z,68.04
2019-03-05T08:38:33.732Z,68.24
2019-03-05T08:39:33.724Z,69.89
2019-03-05T08:40:33.711Z,68.14
2019-03-05T08:41:33.705Z,67.32
2019-03-05T08:42:33.704Z,67.83
2019-03-05T08:43:33.680Z,66.91
2019-03-05T08:44:33.670Z,67.49
2019-03-05T08:45:33.661Z,66.25
2019-03-05T08:46:33.650Z,66.25
2019-03-05T08:47:33.650Z,67.11
2019-03-05T08:48:33.629Z,67.08
2019-03-05T08:49:33.619Z,67.29
2019-03-05T08:50:33.624Z,68.11
2019-03-05T08:51:33.598Z,67.80
2019-03-05T08:52:33.596Z,66.87
2019-03-05T08:53:33.584Z,67.60
2019-03-05T08:54:33.581Z,66.15
2019-03-05T08:55:33.555Z,66.77
2019-03-05T08:56:33.550Z,66.56
2019-03-05T08:57:33.558Z,66.36
2019-03-05T08:58:33.530Z,67.39
2019-03-05T08:59:33.514Z,65.84
2019-03-05T09:00:33.526Z,67.18
2019-03-05T09:01:33.491Z,66.87
2019-03-05T09:02:33.482Z,66.33
2019-03-05T09:03:33.492Z,65.81
2019-03-05T09:04:33.459Z,65.37
2019-03-05T09:05:33.462Z,65.47
2019-03-05T09:06:33.446Z,65.47
2019-03-05T09:07:33.428Z,65.37
2019-03-05T09:08:33.437Z,66.27
2019-03-05T09:09:33.408Z,63.79
2019-03-05T09:10:33.396Z,64.31
2019-03-05T09:11:33.390Z,65.11
2019-03-05T09:12:33.373Z,64.18
2019-03-05T09:13:33.414Z,62.95
2019-03-05T09:14:34.460Z,63.25
2019-03-05T09:15:33.349Z,61.61
2019-03-05T09:16:33.331Z,61.51
2019-03-05T09:17:33.321Z,62.43
2019-03-05T09:18:33.327Z,62.84
2019-03-05T09:19:33.301Z,62.12
2019-03-05T09:20:33.288Z,62.02
2019-03-05T09:21:33.287Z,62.23
2019-03-05T09:22:33.274Z,61.91
2019-03-05T09:23:33.262Z,62.12
2019-03-05T09:24:33.249Z,62.95
2019-03-05T09:25:33.241Z,62.74
2019-03-05T09:26:33.229Z,61.30
2019-03-05T09:27:33.213Z,60.75
2019-03-05T09:28:33.222Z,59.75
2019-03-05T09:29:33.194Z,60.17
2019-03-05T09:30:33.184Z,61.40
2019-03-05T09:31:33.174Z,61.09
2019-03-05T09:32:33.160Z,60.03
2019-03-05T09:33:33.171Z,61.19
2019-03-05T09:34:33.145Z,59.22
2019-03-05T09:35:33.133Z,59.42
2019-03-05T09:36:33.127Z,59.42
2019-03-05T09:37:33.110Z,59.83
2019-03-05T09:38:33.115Z,59.31
2019-03-05T09:39:33.090Z,59.93
2019-03-05T09:40:33.095Z,59.63
2019-03-05T09:41:33.071Z,58.80
2019-03-05T09:42:39.826Z,58.18
2019-03-05T09:43:34.056Z,58.29
2019-03-05T09:44:33.034Z,58.08
2019-03-05T09:45:33.026Z,58.78
2019-03-05T09:46:33.016Z,59.22
2019-03-05T09:47:33.002Z,58.87
2019-03-05T09:48:33.014Z,57.67
2019-03-05T09:49:32.982Z,57.16
2019-03-05T09:50:32.984Z,58.16
2019-03-05T09:51:32.959Z,59.39
2019-03-05T09:52:32.957Z,58.16
2019-03-05T09:53:32.970Z,58.47
2019-03-05T09:54:32.934Z,58.23
2019-03-05T09:55:32.919Z,57.59
2019-03-05T09:56:32.917Z,56.46
2019-03-05T09:57:32.896Z,57.59
2019-03-05T09:58:32.901Z,57.05
2019-03-05T09:59:32.887Z,56.85
2019-03-05T10:00:32.890Z,55.21
2019-03-05T10:01:32.855Z,55.82
2019-03-05T10:02:32.847Z,55.72
2019-03-05T10:03:32.853Z,55.38
2019-03-05T10:04:32.826Z,54.57
2019-03-05T10:05:32.838Z,53.74
2019-03-05T10:06:32.803Z,54.90
2019-03-05T10:07:32.832Z,53.85
2019-03-05T10:08:33.024Z,54.66
2019-03-05T10:09:32.785Z,54.23
2019-03-05T10:10:32.761Z,54.05
2019-03-05T10:11:32.756Z,54.15
2019-03-05T10:12:32.739Z,54.77
2019-03-05T10:13:32.747Z,54.49
2019-03-05T10:14:32.727Z,54.69
2019-03-05T10:15:32.709Z,54.08
2019-03-05T10:16:32.695Z,53.33
2019-03-05T10:17:37.793Z,52.33
2019-03-05T10:18:33.675Z,52.51
2019-03-05T10:19:32.679Z,51.90
2019-03-05T10:20:32.655Z,52.51
2019-03-05T10:21:32.646Z,51.59
2019-03-05T10:22:32.652Z,50.56
2019-03-05T10:23:32.676Z,50.59
2019-03-05T10:24:32.623Z,52.20
2019-03-05T10:25:32.624Z,50.36
2019-03-05T10:26:32.595Z,51.31
2019-03-05T10:27:32.580Z,50.87
2019-03-05T10:28:32.573Z,51.28
2019-03-05T10:29:32.595Z,51.69
2019-03-05T10:30:32.552Z,50.95
2019-03-05T10:31:33.357Z,50.64
2019-03-05T10:32:32.527Z,51.98
2019-03-05T10:33:32.518Z,52.82
2019-03-05T10:34:32.521Z,51.15
2019-03-05T10:35:32.495Z,51.75
2019-03-05T10:36:32.486Z,51.75
2019-03-05T10:37:32.476Z,50.59
2019-03-05T10:38:32.469Z,50.49
2019-03-05T10:39:32.469Z,50.70
2019-03-05T10:40:32.443Z,50.18
2019-03-05T10:41:32.460Z,51.59
2019-03-05T10:42:32.421Z,49.96
2019-03-05T10:43:32.413Z,50.67
2019-03-05T10:44:32.424Z,49.42
2019-03-05T10:45:32.394Z,49.73
2019-03-05T10:46:32.380Z,49.52
2019-03-05T10:47:32.370Z,48.68
2019-03-05T10:48:32.361Z,48.48
2019-03-05T10:49:32.383Z,48.38
2019-03-05T10:50:32.339Z,48.58
2019-03-05T10:51:32.330Z,49.09
2019-03-05T10:52:32.317Z,48.68
2019-03-05T10:53:32.332Z,48.76
2019-03-05T10:54:32.307Z,48.97
2019-03-05T10:55:32.284Z,47.97
2019-03-05T10:56:32.274Z,48.38
2019-03-05T10:57:32.265Z,48.35
2019-03-05T10:58:34.195Z,48.23
2019-03-05T10:59:32.266Z,48.43
2019-03-05T11:00:32.237Z,48.94
2019-03-05T11:01:32.224Z,48.66
2019-03-05T11:02:32.212Z,48.86
2019-03-05T11:03:32.202Z,49.27
2019-03-05T11:04:32.218Z,49.17
2019-03-05T11:05:32.199Z,49.15
2019-03-05T11:06:32.171Z,48.74
2019-03-05T11:07:32.162Z,48.94
2019-03-05T11:08:32.148Z,49.38
2019-03-05T11:09:32.144Z,48.43
2019-03-05T11:10:32.141Z,48.74
2019-03-05T11:11:32.117Z,48.84
2019-03-05T11:12:32.107Z,49.05
2019-03-05T11:13:32.116Z,49.25
2019-03-05T11:14:32.084Z,49.48
2019-03-05T11:15:32.088Z,48.54
2019-03-05T11:16:32.068Z,48.54
2019-03-05T11:17:32.053Z,49.33
2019-03-05T11:18:32.046Z,47.90
2019-03-05T11:19:32.032Z,48.21
2019-03-05T11:20:32.047Z,48.41
2019-03-05T11:21:32.041Z,48.31
2019-03-05T11:22:32.003Z,48.31
2019-03-05T11:23:31.991Z,48.41
2019-03-05T11:24:31.986Z,48.69
2019-03-05T11:25:32.027Z,49.21
2019-03-05T11:26:31.998Z,48.59
2019-03-05T11:27:31.948Z,47.88
2019-03-05T11:28:31.939Z,47.86
2019-03-05T11:29:31.924Z,48.39
2019-03-05T11:30:36.223Z,48.06
2019-03-05T11:31:31.910Z,48.26
2019-03-05T11:32:31.894Z,47.78
2019-03-05T11:33:31.884Z,47.86
2019-03-05T11:34:31.902Z,48.28
2019-03-05T11:35:31.878Z,48.16
2019-03-05T11:36:31.852Z,47.45
2019-03-05T11:37:31.840Z,47.55
2019-03-05T11:38:31.831Z,46.73
2019-03-05T11:39:31.828Z,46.94
2019-03-05T11:40:31.828Z,47.27
2019-03-05T11:41:31.800Z,48.21
2019-03-05T11:42:31.790Z,48.61
2019-03-05T11:43:31.782Z,47.69
2019-03-05T11:44:31.767Z,48.10
2019-03-05T11:45:31.780Z,49.35
2019-03-05T11:46:31.747Z,48.84
2019-03-05T11:47:31.744Z,48.54
2019-03-05T11:48:31.727Z,48.54
2019-03-05T11:49:31.715Z,49.22
2019-03-05T11:50:31.713Z,48.51
2019-03-05T11:51:31.696Z,48.43
2019-03-05T11:52:31.683Z,48.51
2019-03-05T11:53:31.670Z,49.68
2019-03-05T11:54:31.659Z,49.76
2019-03-05T11:55:31.663Z,49.87
2019-03-05T11:56:31.642Z,49.87
2019-03-05T11:57:31.645Z,50.27
2019-03-05T11:58:31.621Z,49.46
2019-03-05T11:59:31.608Z,49.74
2019-03-05T12:00:31.626Z,49.46
2019-03-05T12:01:31.588Z,49.58
2019-03-05T12:02:31.574Z,50.30
2019-03-05T12:03:31.564Z,50.58
2019-03-05T12:04:31.555Z,50.37
2019-03-05T12:05:31.544Z,49.96
2019-03-05T12:06:31.537Z,50.58
2019-03-05T12:07:31.525Z,50.09
2019-03-05T12:08:31.511Z,50.40
2019-03-05T12:09:31.510Z,50.30
2019-03-05T12:10:31.496Z,50.71
2019-03-05T12:11:31.482Z,50.20
2019-03-05T12:12:31.469Z,50.81
2019-03-05T12:13:31.458Z,50.81
2019-03-05T12:14:31.447Z,50.91
2019-03-05T12:15:31.437Z,50.52
2019-03-05T12:16:31.436Z,50.52
2019-03-05T12:17:31.421Z,50.52
2019-03-05T12:18:31.404Z,51.54
2019-03-05T12:19:31.394Z,51.54
2019-03-05T12:20:31.383Z,51.95
2019-03-05T12:21:31.377Z,51.65
2019-03-05T12:22:31.728Z,52.37
2019-03-05T12:23:31.353Z,52.06
2019-03-05T12:24:31.351Z,51.83
2019-03-05T12:25:31.341Z,52.11
2019-03-05T12:26:31.330Z,51.91
2019-03-05T12:27:31.309Z,50.45
2019-03-05T12:28:31.299Z,50.07
2019-03-05T12:29:31.285Z,50.45
2019-03-05T12:30:31.286Z,50.25
2019-03-05T12:31:31.285Z,50.35
2019-03-05T12:32:31.256Z,50.45
2019-03-05T12:33:31.243Z,50.63
2019-03-05T12:34:31.235Z,50.61
2019-03-05T12:35:31.222Z,50.41
2019-03-05T12:36:31.242Z,51.15
2019-03-05T12:37:31.202Z,50.63
2019-03-05T12:38:31.203Z,50.63
2019-03-05T12:39:31.184Z,51.68
2019-03-05T12:40:31.192Z,52.50
2019-03-05T12:41:31.170Z,51.57
2019-03-05T12:42:31.153Z,52.29
2019-03-05T12:43:31.139Z,52.19
2019-03-05T12:44:31.127Z,51.70
2019-03-05T12:45:31.122Z,52.62
2019-03-05T12:46:31.119Z,52.11
2019-03-05T12:47:31.097Z,52.52
2019-03-05T12:48:39.662Z,52.62
2019-03-05T12:49:32.075Z,53.03
2019-03-05T12:50:31.068Z,52.72
2019-03-05T12:51:31.068Z,52.62
2019-03-05T12:52:31.043Z,51.93
2019-03-05T12:53:31.054Z,53.47